createdAt,value
2023-02-02T00:01:56.308Z,10.06
2023-02-02T00:04:09.824Z,10.07
2023-02-02T00:06:23.502Z,10.05
2023-02-02T00:08:37.698Z,10.05
2023-02-02T00:10:51.852Z,10.03
2023-02-02T00:13:05.451Z,10.03
2023-02-02T00:15:18.853Z,10.02
2023-02-02T00:17:32.152Z,9.98
2023-02-02T00:19:45.389Z,9.95
2023-02-02T00:21:58.787Z,9.93
2023-02-02T00:24:12.949Z,9.90
2023-02-02T00:26:26.271Z,9.88
2023-02-02T00:28:39.149Z,9.82
2023-02-02T00:30:52.615Z,9.77
2023-02-02T00:33:06.069Z,9.72
2023-02-02T00:35:19.091Z,9.67
2023-02-02T00:37:32.198Z,9.60
2023-02-02T00:39:45.088Z,9.52
2023-02-02T00:41:58.718Z,9.44
2023-02-02T00:44:28.504Z,9.37
2023-02-02T00:46:46.073Z,9.29
2023-02-02T00:48:59.979Z,9.20
2023-02-02T00:51:13.068Z,9.11
2023-02-02T00:53:26.399Z,9.03
2023-02-02T00:55:39.990Z,8.95
2023-02-02T00:57:53.923Z,8.84
2023-02-02T01:00:07.943Z,8.70
2023-02-02T01:02:21.602Z,8.58
2023-02-02T01:04:35.127Z,8.47
2023-02-02T01:06:48.116Z,8.33
2023-02-02T01:09:01.427Z,8.19
2023-02-02T01:11:14.948Z,8.04
2023-02-02T01:13:28.088Z,7.91
2023-02-02T01:15:42.407Z,7.76
2023-02-02T01:17:56.488Z,7.62
2023-02-02T01:20:11.357Z,7.49
2023-02-02T01:22:24.348Z,7.37
2023-02-02T01:24:37.619Z,7.27
2023-02-02T01:26:50.643Z,7.16
2023-02-02T01:29:03.774Z,7.06
2023-02-02T01:31:18.407Z,6.95
2023-02-02T01:33:32.319Z,6.87
2023-02-02T01:35:51.800Z,6.76
2023-02-02T01:38:05.418Z,6.65
2023-02-02T01:40:20.718Z,6.56
2023-02-02T01:42:34.273Z,6.46
2023-02-02T01:45:30.429Z,6.36
2023-02-02T01:47:46.550Z,6.26
2023-02-02T01:50:01.584Z,6.19
2023-02-02T01:52:16.090Z,6.10
2023-02-02T01:54:38.676Z,6.03
2023-02-02T01:56:56.977Z,5.96
2023-02-02T01:59:11.117Z,5.88
2023-02-02T02:01:24.170Z,5.81
2023-02-02T02:03:40.163Z,5.75
2023-02-02T02:05:56.311Z,5.66
2023-02-02T02:08:16.251Z,5.59
2023-02-02T02:10:29.387Z,5.50
2023-02-02T02:12:44.107Z,5.44
2023-02-02T02:15:14.227Z,5.35
2023-02-02T02:17:47.599Z,5.25
2023-02-02T02:20:51.320Z,5.16
2023-02-02T02:23:50.719Z,5.07
2023-02-02T02:26:39.670Z,5.00
2023-02-02T02:29:18.909Z,4.97
2023-02-02T02:32:03.820Z,4.94
2023-02-02T02:34:22.846Z,4.91
2023-02-02T02:36:45.785Z,4.87
2023-02-02T02:39:05.896Z,4.82
2023-02-02T02:41:24.357Z,4.77
2023-02-02T02:43:42.805Z,4.73
2023-02-02T02:45:57.089Z,4.67
2023-02-02T02:48:13.236Z,4.62
2023-02-02T02:50:27.490Z,4.58
2023-02-02T02:52:43.767Z,4.54
2023-02-02T02:54:59.597Z,4.48
2023-02-02T02:57:31.464Z,4.44
2023-02-02T02:59:56.387Z,4.39
2023-02-02T03:04:57.581Z,4.28
2023-02-02T03:07:16.616Z,4.24
2023-02-02T03:09:36.075Z,4.19
2023-02-02T03:11:49.938Z,4.14
2023-02-02T03:14:04.860Z,4.10
2023-02-02T03:16:18.646Z,4.06
2023-02-02T03:18:34.863Z,4.02
2023-02-02T03:20:48.887Z,4.00
2023-02-02T03:23:02.836Z,4.00
2023-02-02T03:25:17.512Z,3.99
2023-02-02T03:27:31.128Z,3.98
2023-02-02T03:29:45.262Z,3.96
2023-02-02T03:31:58.478Z,3.95
2023-02-02T03:34:12.543Z,3.93
2023-02-02T03:36:26.115Z,3.90
2023-02-02T03:38:39.599Z,3.87
2023-02-02T03:40:53.948Z,3.83
2023-02-02T03:43:07.262Z,3.81
2023-02-02T03:45:20.515Z,3.78
2023-02-02T03:47:36.797Z,3.76
2023-02-02T03:49:50.687Z,3.74
2023-02-02T03:52:05.387Z,3.71
2023-02-02T03:54:18.768Z,3.69
2023-02-02T03:56:31.908Z,3.65
2023-02-02T03:58:44.816Z,3.61
2023-02-02T04:01:02.767Z,3.58
2023-02-02T04:03:15.907Z,3.55
2023-02-02T04:05:29.069Z,3.51
2023-02-02T04:07:42.115Z,3.47
2023-02-02T04:09:55.457Z,3.43
2023-02-02T04:12:08.759Z,3.41
2023-02-02T04:14:22.087Z,3.40
2023-02-02T04:16:38.286Z,3.39
2023-02-02T04:18:51.470Z,3.38
2023-02-02T04:21:06.058Z,3.36
2023-02-02T04:23:19.696Z,3.35
2023-02-02T04:25:33.159Z,3.35
2023-02-02T04:27:46.828Z,3.34
2023-02-02T04:29:59.949Z,3.33
2023-02-02T04:32:17.802Z,3.33
2023-02-02T04:34:31.190Z,3.32
2023-02-02T04:36:44.388Z,3.32
2023-02-02T04:38:58.582Z,3.30
2023-02-02T04:41:17.547Z,3.28
2023-02-02T04:43:31.176Z,3.26
2023-02-02T04:45:45.100Z,3.24
2023-02-02T04:48:00.037Z,3.21
2023-02-02T04:50:15.208Z,3.21
2023-02-02T04:52:28.478Z,3.20
2023-02-02T04:54:42.177Z,3.18
2023-02-02T04:56:55.691Z,3.18
2023-02-02T04:59:08.668Z,3.17
2023-02-02T05:01:23.780Z,3.16
2023-02-02T05:03:37.565Z,3.16
2023-02-02T05:05:51.760Z,3.15
2023-02-02T05:08:05.149Z,3.14
2023-02-02T05:10:19.588Z,3.14
2023-02-02T05:12:32.878Z,3.14
2023-02-02T05:14:46.099Z,3.13
2023-02-02T05:17:00.603Z,3.12
2023-02-02T05:19:17.917Z,3.11
2023-02-02T05:21:30.968Z,3.12
2023-02-02T05:23:44.308Z,3.13
2023-02-02T05:26:00.748Z,3.16
2023-02-02T05:28:14.267Z,3.21
2023-02-02T05:30:27.940Z,3.25
2023-02-02T05:32:41.654Z,3.25
2023-02-02T05:34:55.227Z,3.32
2023-02-02T05:37:08.339Z,3.54
2023-02-02T05:39:21.498Z,3.86
2023-02-02T05:41:34.724Z,4.17
2023-02-02T05:43:47.901Z,4.54
2023-02-02T05:46:01.050Z,4.89
2023-02-02T05:48:16.755Z,5.24
2023-02-02T05:50:29.828Z,5.57
2023-02-02T05:52:51.608Z,5.87
2023-02-02T05:55:05.047Z,6.12
2023-02-02T05:57:19.288Z,6.34
2023-02-02T05:59:32.988Z,6.52
2023-02-02T06:01:46.671Z,6.68
2023-02-02T06:03:59.853Z,6.83
2023-02-02T06:06:13.247Z,6.96
2023-02-02T06:08:26.446Z,7.07
2023-02-02T06:10:41.959Z,7.16
2023-02-02T06:12:54.881Z,7.23
2023-02-02T06:15:08.169Z,7.30
2023-02-02T06:17:21.245Z,7.36
2023-02-02T06:19:34.179Z,7.42
2023-02-02T06:21:47.107Z,7.49
2023-02-02T06:24:00.646Z,7.53
2023-02-02T06:26:13.664Z,7.59
2023-02-02T06:28:26.701Z,7.64
2023-02-02T06:30:40.766Z,7.66
2023-02-02T06:32:55.479Z,7.69
2023-02-02T06:35:09.140Z,7.75
2023-02-02T06:37:22.560Z,7.77
2023-02-02T06:39:36.198Z,7.80
2023-02-02T06:41:50.278Z,7.86
2023-02-02T06:44:03.788Z,7.92
2023-02-02T06:46:17.192Z,7.96
2023-02-02T06:48:30.910Z,8.01
2023-02-02T06:50:44.230Z,8.04
2023-02-02T06:52:57.833Z,8.09
2023-02-02T06:55:12.177Z,8.12
2023-02-02T06:57:25.357Z,8.14
2023-02-02T06:59:39.404Z,8.18
2023-02-02T07:01:56.440Z,8.20
2023-02-02T07:04:09.825Z,8.19
2023-02-02T07:06:24.627Z,8.20
2023-02-02T07:08:37.679Z,8.20
2023-02-02T07:11:11.110Z,8.20
2023-02-02T07:13:23.807Z,8.20
2023-02-02T07:15:36.997Z,8.21
2023-02-02T07:17:49.941Z,8.23
2023-02-02T07:20:03.692Z,8.25
2023-02-02T07:22:17.210Z,8.25
2023-02-02T07:24:30.561Z,8.27
2023-02-02T07:26:44.004Z,8.28
2023-02-02T07:28:58.238Z,8.30
2023-02-02T07:31:22.035Z,8.33
2023-02-02T07:33:39.890Z,8.34
2023-02-02T07:35:53.502Z,8.34
2023-02-02T07:38:06.870Z,8.34
2023-02-02T07:40:20.878Z,8.35
2023-02-02T07:42:34.819Z,8.36
2023-02-02T07:44:48.039Z,8.36
2023-02-02T07:47:01.613Z,8.35
2023-02-02T07:49:20.957Z,8.38
2023-02-02T07:51:34.816Z,8.40
2023-02-02T07:53:52.642Z,8.40
2023-02-02T07:56:15.311Z,8.40
2023-02-02T07:58:25.649Z,8.38
2023-02-02T08:00:39.094Z,8.35
2023-02-02T08:02:54.742Z,8.36
2023-02-02T08:05:09.418Z,8.34
2023-02-02T08:07:25.689Z,8.33
2023-02-02T08:09:39.599Z,8.33
2023-02-02T08:11:52.593Z,8.33
2023-02-02T08:14:06.613Z,8.32
2023-02-02T08:16:20.407Z,8.31
2023-02-02T08:18:33.809Z,8.30
2023-02-02T08:20:47.900Z,8.30
2023-02-02T08:23:00.748Z,8.29
2023-02-02T08:25:14.807Z,8.30
2023-02-02T08:27:27.989Z,8.32
2023-02-02T08:29:42.658Z,8.32
2023-02-02T08:31:56.068Z,8.31
2023-02-02T08:34:09.888Z,8.32
2023-02-02T08:36:25.144Z,8.33
2023-02-02T08:38:39.006Z,8.34
2023-02-02T08:40:52.299Z,8.33
2023-02-02T08:43:06.589Z,8.31
2023-02-02T08:46:04.250Z,8.28
2023-02-02T08:48:10.764Z,8.25
2023-02-02T08:50:25.628Z,8.22
2023-02-02T08:52:38.715Z,8.21
2023-02-02T08:54:51.792Z,8.21
2023-02-02T08:57:05.032Z,8.22
2023-02-02T08:59:18.211Z,8.22
2023-02-02T09:01:33.269Z,8.21
2023-02-02T09:03:46.614Z,8.19
2023-02-02T09:05:59.519Z,8.17
2023-02-02T09:08:12.720Z,8.16
2023-02-02T09:10:25.799Z,8.15
2023-02-02T09:12:39.447Z,8.14
2023-02-02T09:14:53.048Z,8.11
2023-02-02T09:17:06.078Z,8.08
2023-02-02T09:19:19.138Z,8.09
2023-02-02T09:21:32.154Z,8.07
2023-02-02T09:23:46.651Z,8.06
2023-02-02T09:25:59.612Z,8.05
2023-02-02T09:28:12.828Z,8.03
2023-02-02T09:30:26.402Z,8.02
2023-02-02T09:32:39.687Z,8.03
2023-02-02T09:34:53.230Z,8.03
2023-02-02T09:37:06.128Z,8.04
2023-02-02T09:39:20.814Z,8.07
2023-02-02T09:42:11.093Z,8.08
2023-02-02T09:44:42.275Z,8.08
2023-02-02T09:47:06.829Z,8.06
2023-02-02T09:49:24.816Z,8.03
2023-02-02T09:51:43.173Z,8.00
2023-02-02T09:54:01.630Z,7.97
2023-02-02T09:56:24.959Z,7.94
2023-02-02T09:58:44.660Z,7.93
2023-02-02T10:01:05.053Z,7.93
2023-02-02T10:03:24.523Z,7.92
2023-02-02T10:05:46.011Z,7.90
2023-02-02T10:08:03.766Z,7.88
2023-02-02T10:10:23.241Z,7.89
2023-02-02T10:12:48.647Z,7.88
2023-02-02T10:15:13.818Z,7.88
2023-02-02T10:17:40.878Z,7.88
2023-02-02T10:19:56.323Z,7.87
2023-02-02T10:22:16.429Z,7.86
2023-02-02T10:24:32.947Z,7.84
2023-02-02T10:26:50.687Z,7.84
2023-02-02T10:29:15.137Z,7.83
2023-02-02T10:31:46.204Z,7.79
2023-02-02T10:34:12.097Z,7.78
2023-02-02T10:36:34.429Z,7.75
2023-02-02T10:38:54.657Z,7.74
2023-02-02T10:41:18.207Z,7.75
2023-02-02T10:43:55.777Z,7.77
2023-02-02T10:46:15.674Z,7.79
2023-02-02T10:48:36.688Z,7.81
2023-02-02T10:50:57.863Z,7.83
2023-02-02T10:53:17.587Z,7.81
2023-02-02T10:55:42.630Z,7.79
2023-02-02T10:58:04.423Z,7.78
2023-02-02T11:00:25.490Z,7.80
2023-02-02T11:02:38.922Z,7.78
2023-02-02T11:05:08.376Z,7.76
2023-02-02T11:07:25.265Z,7.76
2023-02-02T11:09:43.855Z,7.77
2023-02-02T11:12:03.047Z,7.78
2023-02-02T11:14:24.614Z,7.79
2023-02-02T11:16:43.633Z,7.80
2023-02-02T11:18:57.397Z,7.80
2023-02-02T11:21:22.203Z,7.80
2023-02-02T11:23:35.337Z,7.79
2023-02-02T11:25:49.706Z,7.77
2023-02-02T11:28:03.767Z,7.74
2023-02-02T11:30:27.653Z,7.69
2023-02-02T11:32:41.463Z,7.66
2023-02-02T11:35:08.286Z,7.66
2023-02-02T11:37:26.389Z,7.66
2023-02-02T11:39:39.618Z,7.67
2023-02-02T11:41:52.848Z,7.67
2023-02-02T11:44:07.736Z,7.64
2023-02-02T11:46:27.017Z,7.62
2023-02-02T11:48:43.169Z,7.60
2023-02-02T11:50:58.627Z,7.54
2023-02-02T11:53:23.487Z,7.51
2023-02-02T11:55:38.580Z,7.46
2023-02-02T11:58:28.876Z,7.39
2023-02-02T12:00:52.987Z,7.31
2023-02-02T12:03:25.867Z,7.25
2023-02-02T12:05:47.618Z,7.23
2023-02-02T12:08:00.616Z,7.20
2023-02-02T12:10:23.378Z,7.17
2023-02-02T12:12:42.586Z,7.15
2023-02-02T12:15:05.171Z,7.08
2023-02-02T12:17:25.569Z,6.98
2023-02-02T12:20:05.139Z,6.85
2023-02-02T12:22:31.005Z,6.71
2023-02-02T12:24:53.175Z,6.60
2023-02-02T12:27:25.921Z,6.49
2023-02-02T12:29:56.527Z,6.40
2023-02-02T12:32:23.668Z,6.35
2023-02-02T12:34:46.663Z,6.28
2023-02-02T12:37:12.159Z,6.20
2023-02-02T12:39:44.108Z,6.11
2023-02-02T12:42:23.543Z,6.04
2023-02-02T12:44:52.047Z,5.98
2023-02-02T12:47:17.563Z,5.94
2023-02-02T12:49:56.577Z,5.90
2023-02-02T12:52:25.058Z,5.85
2023-02-02T12:55:10.682Z,5.85
2023-02-02T12:57:34.819Z,5.90
2023-02-02T13:00:06.759Z,5.96
2023-02-02T13:02:28.866Z,5.97
2023-02-02T13:04:59.968Z,5.98
2023-02-02T13:07:37.756Z,5.99
2023-02-02T13:09:55.370Z,5.94
2023-02-02T13:12:14.141Z,5.88
2023-02-02T13:14:33.168Z,5.83
2023-02-02T13:16:51.351Z,5.80
2023-02-02T13:19:08.411Z,5.76
2023-02-02T13:21:24.593Z,5.74
2023-02-02T13:23:41.027Z,5.79
2023-02-02T13:26:00.225Z,5.95
2023-02-02T13:28:21.229Z,6.02
2023-02-02T13:30:39.234Z,6.04
2023-02-02T13:32:56.212Z,6.05
2023-02-02T13:35:22.625Z,6.09
2023-02-02T13:37:40.898Z,6.15
2023-02-02T13:39:57.688Z,6.21
2023-02-02T13:42:18.059Z,6.21
2023-02-02T13:44:38.985Z,6.17
2023-02-02T13:46:58.359Z,6.21
2023-02-02T13:49:16.145Z,6.33
2023-02-02T13:51:52.889Z,6.42
2023-02-02T13:54:28.739Z,6.49
2023-02-02T13:56:56.497Z,6.54
2023-02-02T13:59:38.966Z,6.55
2023-02-02T14:01:54.610Z,6.60
2023-02-02T14:04:08.082Z,6.68
2023-02-02T14:06:24.672Z,6.79
2023-02-02T14:08:38.975Z,6.89
2023-02-02T14:11:05.122Z,7.00
2023-02-02T14:13:40.210Z,7.10
2023-02-02T14:15:59.018Z,7.19
2023-02-02T14:18:12.523Z,7.32
2023-02-02T14:20:59.675Z,7.42
2023-02-02T14:23:52.369Z,7.54
2023-02-02T14:26:15.377Z,7.63
2023-02-02T14:28:54.662Z,7.66
2023-02-02T14:31:44.708Z,7.75
2023-02-02T14:34:18.400Z,7.83
2023-02-02T14:36:33.091Z,7.90
2023-02-02T14:39:11.597Z,7.94
2023-02-02T14:41:50.925Z,7.97
2023-02-02T14:44:10.637Z,7.99
2023-02-02T14:46:49.478Z,7.97
2023-02-02T14:49:30.268Z,7.92
2023-02-02T14:51:56.626Z,7.89
2023-02-02T14:54:21.008Z,7.83
2023-02-02T14:56:51.131Z,7.77
2023-02-02T14:59:06.271Z,7.73
2023-02-02T15:01:30.182Z,7.67
2023-02-02T15:03:55.057Z,7.59
2023-02-02T15:06:18.330Z,7.52
2023-02-02T15:08:32.613Z,7.41
2023-02-02T15:11:33.198Z,7.32
2023-02-02T15:13:49.569Z,7.19
2023-02-02T15:16:25.727Z,7.08
2023-02-02T15:18:47.789Z,7.01
2023-02-02T15:21:03.597Z,6.93
2023-02-02T15:23:27.864Z,6.84
2023-02-02T15:25:45.166Z,6.73
2023-02-02T15:28:03.578Z,6.67
2023-02-02T15:30:20.520Z,6.61
2023-02-02T15:32:35.389Z,6.58
2023-02-02T15:34:51.478Z,6.57
2023-02-02T15:37:08.868Z,6.59
2023-02-02T15:39:30.509Z,6.62
2023-02-02T15:41:49.151Z,6.64
2023-02-02T15:44:02.900Z,6.62
2023-02-02T15:46:25.386Z,6.57
2023-02-02T15:48:39.451Z,6.47
2023-02-02T15:50:55.856Z,6.38
2023-02-02T15:53:09.408Z,6.31
2023-02-02T15:55:28.845Z,6.24
2023-02-02T15:57:48.628Z,6.16
2023-02-02T16:00:02.089Z,6.12
2023-02-02T16:02:35.769Z,6.07
2023-02-02T16:04:49.616Z,6.05
2023-02-02T16:07:04.852Z,6.07
2023-02-02T16:09:27.271Z,6.20
2023-02-02T16:11:44.801Z,6.41
2023-02-02T16:14:05.156Z,6.58
2023-02-02T16:16:30.696Z,6.75
2023-02-02T16:18:44.274Z,6.93
2023-02-02T16:21:01.044Z,7.10
2023-02-02T16:23:22.944Z,7.24
2023-02-02T16:25:42.688Z,7.37
2023-02-02T16:27:57.346Z,7.53
2023-02-02T16:30:12.977Z,7.68
2023-02-02T16:32:38.182Z,7.81
2023-02-02T16:34:51.963Z,7.94
2023-02-02T16:37:21.598Z,8.05
2023-02-02T16:39:34.693Z,8.15
2023-02-02T16:41:50.396Z,8.22
2023-02-02T16:44:41.597Z,8.28
2023-02-02T16:46:56.486Z,8.36
2023-02-02T16:49:17.621Z,8.43
2023-02-02T16:51:34.338Z,8.52
2023-02-02T16:53:48.462Z,8.59
2023-02-02T16:56:02.149Z,8.67
2023-02-02T16:58:23.231Z,8.74
2023-02-02T17:00:38.208Z,8.80
2023-02-02T17:02:55.921Z,8.85
2023-02-02T17:05:20.143Z,8.89
2023-02-02T17:07:35.018Z,8.92
2023-02-02T17:09:50.807Z,8.94
2023-02-02T17:12:14.349Z,8.94
2023-02-02T17:14:36.808Z,8.99
2023-02-02T17:16:50.029Z,9.04
2023-02-02T17:19:03.670Z,9.08
2023-02-02T17:21:21.334Z,9.15
2023-02-02T17:23:37.391Z,9.22
2023-02-02T17:25:51.411Z,9.28
2023-02-02T17:28:05.768Z,9.32
2023-02-02T17:30:25.210Z,9.37
2023-02-02T17:32:38.428Z,9.42
2023-02-02T17:34:52.011Z,9.47
2023-02-02T17:37:05.058Z,9.52
2023-02-02T17:39:18.807Z,9.58
2023-02-02T17:41:31.989Z,9.63
2023-02-02T17:43:45.827Z,9.68
2023-02-02T17:45:59.227Z,9.72
2023-02-02T17:48:14.160Z,9.77
2023-02-02T17:50:28.560Z,9.81
2023-02-02T17:52:42.319Z,9.85
2023-02-02T17:54:55.117Z,9.88
2023-02-02T17:57:08.338Z,9.92
2023-02-02T17:59:21.347Z,9.96
2023-02-02T18:01:37.605Z,10.00
2023-02-02T18:03:53.277Z,10.04
2023-02-02T18:06:06.828Z,10.05
2023-02-02T18:08:20.069Z,10.08
2023-02-02T18:10:33.198Z,10.10
2023-02-02T18:12:46.357Z,10.12
2023-02-02T18:15:00.381Z,10.15
2023-02-02T18:17:14.307Z,10.19
2023-02-02T18:19:28.128Z,10.26
2023-02-02T18:21:42.008Z,10.33
2023-02-02T18:23:55.597Z,10.40
2023-02-02T18:26:18.684Z,10.47
2023-02-02T18:28:31.814Z,10.53
2023-02-02T18:30:47.676Z,10.58
2023-02-02T18:33:01.018Z,10.62
2023-02-02T18:35:15.326Z,10.66
2023-02-02T18:37:28.839Z,10.69
2023-02-02T18:39:42.337Z,10.72
2023-02-02T18:41:55.287Z,10.76
2023-02-02T18:44:08.196Z,10.81
2023-02-02T18:46:22.469Z,10.87
2023-02-02T18:48:36.210Z,10.94
2023-02-02T18:50:49.128Z,10.99
2023-02-02T18:53:02.260Z,11.04
2023-02-02T18:55:15.906Z,11.11
2023-02-02T18:57:29.693Z,11.17
2023-02-02T18:59:43.137Z,11.23
2023-02-02T19:01:59.907Z,11.28
2023-02-02T19:04:13.003Z,11.34
2023-02-02T19:06:44.030Z,11.37
2023-02-02T19:08:57.719Z,11.42
2023-02-02T19:11:18.766Z,11.46
2023-02-02T19:13:33.667Z,11.50
2023-02-02T19:15:47.355Z,11.53
2023-02-02T19:18:00.725Z,11.56
2023-02-02T19:20:31.557Z,11.59
2023-02-02T19:22:45.071Z,11.63
2023-02-02T19:24:58.254Z,11.65
2023-02-02T19:27:19.272Z,11.67
2023-02-02T19:29:42.216Z,11.68
2023-02-02T19:32:02.180Z,11.71
2023-02-02T19:34:20.777Z,11.72
2023-02-02T19:36:35.327Z,11.76
2023-02-02T19:38:49.278Z,11.78
2023-02-02T19:41:04.306Z,11.79
2023-02-02T19:43:30.297Z,11.82
2023-02-02T19:45:44.271Z,11.86
2023-02-02T19:47:58.370Z,11.91
2023-02-02T19:50:22.800Z,11.96
2023-02-02T19:52:37.278Z,12.04
2023-02-02T19:54:51.093Z,12.11
2023-02-02T19:57:10.588Z,12.18
2023-02-02T19:59:26.424Z,12.25
2023-02-02T20:01:41.788Z,12.32
2023-02-02T20:03:56.508Z,12.37
2023-02-02T20:06:15.818Z,12.41
2023-02-02T20:08:36.451Z,12.46
2023-02-02T20:10:50.047Z,12.47
2023-02-02T20:13:03.388Z,12.50
2023-02-02T20:15:31.654Z,12.53
2023-02-02T20:17:46.597Z,12.57
2023-02-02T20:20:00.249Z,12.60
2023-02-02T20:22:27.959Z,12.64
2023-02-02T20:24:43.534Z,12.67
2023-02-02T20:26:58.082Z,12.68
2023-02-02T20:29:23.410Z,12.71
2023-02-02T20:31:42.311Z,12.73
2023-02-02T20:33:59.160Z,12.76
2023-02-02T20:36:38.117Z,12.77
2023-02-02T20:38:51.647Z,12.79
2023-02-02T20:41:05.734Z,12.81
2023-02-02T20:43:22.766Z,12.83
2023-02-02T20:45:36.470Z,12.81
2023-02-02T20:47:53.647Z,12.82
2023-02-02T20:50:07.709Z,12.84
2023-02-02T20:52:24.886Z,12.86
2023-02-02T20:54:38.047Z,12.87
2023-02-02T20:56:51.465Z,12.89
2023-02-02T20:59:07.017Z,12.90
2023-02-02T21:01:20.643Z,12.92
2023-02-02T21:03:34.678Z,12.94
2023-02-02T21:05:47.980Z,12.95
2023-02-02T21:08:01.423Z,12.95
2023-02-02T21:10:15.487Z,12.95
2023-02-02T21:12:29.131Z,12.97
2023-02-02T21:14:42.579Z,12.97
2023-02-02T21:17:12.691Z,12.96
2023-02-02T21:19:27.145Z,12.95
2023-02-02T21:21:40.803Z,12.94
2023-02-02T21:23:54.728Z,12.92
2023-02-02T21:26:07.877Z,12.93
2023-02-02T21:28:21.088Z,12.98
2023-02-02T21:30:34.317Z,13.02
2023-02-02T21:32:47.827Z,13.07
2023-02-02T21:35:01.771Z,13.07
2023-02-02T21:37:18.886Z,13.07
2023-02-02T21:39:35.770Z,13.06
2023-02-02T21:41:49.678Z,13.07
2023-02-02T21:44:03.297Z,13.07
2023-02-02T21:46:21.314Z,13.06
2023-02-02T21:48:41.982Z,13.07
2023-02-02T21:50:55.419Z,13.09
2023-02-02T21:53:22.016Z,13.10
2023-02-02T21:55:41.679Z,13.10
2023-02-02T21:57:54.898Z,13.08
2023-02-02T22:00:20.589Z,13.04
2023-02-02T22:02:51.885Z,13.02
2023-02-02T22:05:05.778Z,12.99
2023-02-02T22:07:21.090Z,12.99
2023-02-02T22:09:40.881Z,12.98
2023-02-02T22:11:59.470Z,12.93
2023-02-02T22:14:23.782Z,12.89
2023-02-02T22:16:44.157Z,12.84
2023-02-02T22:18:58.867Z,12.80
2023-02-02T22:21:15.748Z,12.79
2023-02-02T22:23:30.814Z,12.78
2023-02-02T22:25:47.722Z,12.76
2023-02-02T22:28:02.835Z,12.75
2023-02-02T22:30:29.683Z,12.74
2023-02-02T22:32:43.118Z,12.78
2023-02-02T22:34:56.306Z,12.85
2023-02-02T22:37:09.407Z,12.91
2023-02-02T22:39:23.020Z,12.96
2023-02-02T22:41:36.869Z,13.01
2023-02-02T22:43:50.097Z,13.04
2023-02-02T22:46:03.117Z,13.04
2023-02-02T22:48:16.728Z,13.04
2023-02-02T22:50:31.511Z,13.05
2023-02-02T22:52:45.109Z,13.06
2023-02-02T22:54:58.389Z,13.04
2023-02-02T22:57:11.691Z,13.00
2023-02-02T22:59:25.271Z,12.97
2023-02-02T23:01:38.714Z,12.92
2023-02-02T23:03:52.160Z,12.88
2023-02-02T23:06:05.449Z,12.84
2023-02-02T23:08:18.451Z,12.80
2023-02-02T23:10:36.407Z,12.75
2023-02-02T23:12:50.726Z,12.69
2023-02-02T23:15:04.140Z,12.64
2023-02-02T23:17:18.051Z,12.60
2023-02-02T23:19:31.202Z,12.55
2023-02-02T23:21:48.290Z,12.49
2023-02-02T23:24:02.153Z,12.47
2023-02-02T23:26:15.657Z,12.45
2023-02-02T23:28:29.207Z,12.42
2023-02-02T23:30:42.316Z,12.40
2023-02-02T23:32:58.645Z,12.38
2023-02-02T23:35:13.355Z,12.35
2023-02-02T23:37:26.537Z,12.32
2023-02-02T23:39:39.486Z,12.30
2023-02-02T23:41:52.418Z,12.27
2023-02-02T23:44:05.367Z,12.24
2023-02-02T23:46:18.413Z,12.21
2023-02-02T23:48:31.874Z,12.18
2023-02-02T23:50:45.329Z,12.15
2023-02-02T23:52:59.437Z,12.11
2023-02-02T23:55:14.310Z,12.08
2023-02-02T23:57:27.577Z,12.05
2023-02-02T23:59:41.269Z,12.01
